createdAt,value
2018-05-09T00:01:08.741Z,71.40
2018-05-09T00:03:37.797Z,71.60
2018-05-09T00:06:06.080Z,71.50
2018-05-09T00:08:34.430Z,71.40
2018-05-09T00:11:03.499Z,72.30
2018-05-09T00:13:31.837Z,72.30
2018-05-09T00:16:00.190Z,72.80
2018-05-09T00:18:28.563Z,73.10
2018-05-09T00:20:56.853Z,73.30
2018-05-09T00:23:25.181Z,73.40
2018-05-09T00:25:54.236Z,73.30
2018-05-09T00:28:22.569Z,73.30
2018-05-09T00:30:50.910Z,73.30
2018-05-09T00:33:19.317Z,73.40
2018-05-09T00:35:47.605Z,73.40
2018-05-09T00:38:15.887Z,73.60
2018-05-09T00:40:44.513Z,73.50
2018-05-09T00:43:12.797Z,73.50
2018-05-09T00:45:41.113Z,73.60
2018-05-09T00:48:10.293Z,73.60
2018-05-09T00:50:38.581Z,73.50
2018-05-09T00:53:07.179Z,73.40
2018-05-09T00:55:35.483Z,73.50
2018-05-09T00:58:04.533Z,73.80
2018-05-09T01:00:33.279Z,73.80
2018-05-09T01:05:36.301Z,74.40
2018-05-09T01:08:04.641Z,74.50
2018-05-09T01:10:32.977Z,74.80
2018-05-09T01:13:01.369Z,75.20
2018-05-09T01:15:29.661Z,76.20
2018-05-09T01:17:58.000Z,75.80
2018-05-09T01:20:26.285Z,76.00
2018-05-09T01:22:54.566Z,76.10
2018-05-09T01:25:23.740Z,76.20
2018-05-09T01:27:51.987Z,76.10
2018-05-09T01:30:20.317Z,76.20
2018-05-09T01:32:48.601Z,76.50
2018-05-09T01:35:17.001Z,76.30
2018-05-09T01:37:45.284Z,76.20
2018-05-09T01:40:14.097Z,76.40
2018-05-09T01:42:42.579Z,76.90
2018-05-09T01:45:10.873Z,76.80
2018-05-09T01:47:39.269Z,77.90
2018-05-09T01:50:07.611Z,77.80
2018-05-09T01:52:35.894Z,78.30
2018-05-09T01:55:04.211Z,78.60
2018-05-09T01:57:32.550Z,79.40
2018-05-09T02:00:01.699Z,79.30
2018-05-09T02:02:30.333Z,78.80
2018-05-09T02:04:58.621Z,78.50
2018-05-09T02:07:26.901Z,78.60
2018-05-09T02:09:55.246Z,79.20
2018-05-09T02:12:23.594Z,79.40
2018-05-09T02:14:51.896Z,80.20
2018-05-09T02:17:20.230Z,80.50
2018-05-09T02:19:48.517Z,80.70
2018-05-09T02:22:16.869Z,80.90
2018-05-09T02:24:45.209Z,82.10
2018-05-09T02:27:13.493Z,81.60
2018-05-09T02:29:41.782Z,82.10
2018-05-09T02:32:10.125Z,82.50
2018-05-09T02:34:38.409Z,83.00
2018-05-09T02:37:06.757Z,83.00
2018-05-09T02:39:35.049Z,83.10
2018-05-09T02:42:03.633Z,83.20
2018-05-09T02:44:31.917Z,83.10
2018-05-09T02:47:00.257Z,82.60
2018-05-09T02:49:28.599Z,82.70
2018-05-09T02:51:56.941Z,83.10
2018-05-09T02:54:25.221Z,83.00
2018-05-09T02:56:53.557Z,83.50
2018-05-09T02:59:21.903Z,84.00
2018-05-09T03:01:50.189Z,83.90
2018-05-09T03:04:18.578Z,84.30
2018-05-09T03:06:46.862Z,84.70
2018-05-09T03:09:15.206Z,85.00
2018-05-09T03:11:43.545Z,84.90
2018-05-09T03:14:11.946Z,85.00
2018-05-09T03:16:40.289Z,84.80
2018-05-09T03:19:08.572Z,84.60
2018-05-09T03:21:36.918Z,85.40
2018-05-09T03:24:05.240Z,86.30
2018-05-09T03:26:33.529Z,86.10
2018-05-09T03:29:01.874Z,86.20
2018-05-09T03:31:30.153Z,85.60
2018-05-09T03:33:58.513Z,85.80
2018-05-09T03:36:26.949Z,86.40
2018-05-09T03:38:55.245Z,86.50
2018-05-09T03:41:23.533Z,86.60
2018-05-09T03:43:51.936Z,87.00
2018-05-09T03:46:20.274Z,87.20
2018-05-09T03:48:48.609Z,86.70
2018-05-09T03:51:16.901Z,86.40
2018-05-09T03:53:45.241Z,87.70
2018-05-09T03:56:13.529Z,87.00
2018-05-09T03:58:41.869Z,86.40
2018-05-09T04:01:10.213Z,85.20
2018-05-09T04:03:50.423Z,85.50
2018-05-09T04:06:30.685Z,84.70
2018-05-09T04:09:10.781Z,85.10
2018-05-09T04:11:39.134Z,85.80
2018-05-09T04:14:07.480Z,86.10
2018-05-09T04:16:36.592Z,85.20
2018-05-09T04:19:05.646Z,84.20
2018-05-09T04:21:33.929Z,84.10
2018-05-09T04:24:02.276Z,84.10
2018-05-09T04:26:31.321Z,82.90
2018-05-09T04:28:59.604Z,82.90
2018-05-09T04:31:27.973Z,82.90
2018-05-09T04:33:56.253Z,82.60
2018-05-09T04:36:24.554Z,82.40
2018-05-09T04:38:52.889Z,81.80
2018-05-09T04:41:21.212Z,81.90
2018-05-09T04:43:50.310Z,82.20
2018-05-09T04:46:18.665Z,82.20
2018-05-09T04:48:46.948Z,82.70
2018-05-09T04:51:15.237Z,82.50
2018-05-09T04:53:43.577Z,82.10
2018-05-09T04:56:12.745Z,82.20
2018-05-09T04:58:41.037Z,82.10
2018-05-09T05:01:09.377Z,81.50
2018-05-09T05:03:38.425Z,81.10
2018-05-09T05:06:06.857Z,81.00
2018-05-09T05:08:36.050Z,80.00
2018-05-09T05:11:04.337Z,79.90
2018-05-09T05:13:32.818Z,80.40
2018-05-09T05:16:01.095Z,80.40
2018-05-09T05:18:29.453Z,80.10
2018-05-09T05:20:57.734Z,80.80
2018-05-09T05:23:26.789Z,80.40
2018-05-09T05:25:55.449Z,80.30
2018-05-09T05:28:23.730Z,79.80
2018-05-09T05:30:52.017Z,79.90
2018-05-09T05:33:21.142Z,78.90
2018-05-09T05:35:49.431Z,78.90
2018-05-09T05:38:17.765Z,78.80
2018-05-09T05:40:46.109Z,77.90
2018-05-09T05:43:14.469Z,78.60
2018-05-09T05:45:42.880Z,77.20
2018-05-09T05:48:11.936Z,77.30
2018-05-09T05:50:40.276Z,77.20
2018-05-09T05:53:08.636Z,77.40
2018-05-09T05:55:38.485Z,75.90
2018-05-09T05:58:07.597Z,76.60
2018-05-09T06:00:36.152Z,76.60
2018-05-09T06:03:04.440Z,76.30
2018-05-09T06:05:32.741Z,75.80
2018-05-09T06:08:01.139Z,75.90
2018-05-09T06:10:29.517Z,76.60
2018-05-09T06:12:57.874Z,75.70
2018-05-09T06:15:26.166Z,75.20
2018-05-09T06:17:54.821Z,75.20
2018-05-09T06:20:23.881Z,75.20
2018-05-09T06:22:52.171Z,75.20
2018-05-09T06:25:20.893Z,76.00
2018-05-09T06:27:49.182Z,73.90
2018-05-09T06:30:17.479Z,73.90
2018-05-09T06:32:47.330Z,74.70
2018-05-09T06:35:16.461Z,74.20
2018-05-09T06:37:44.819Z,74.20
2018-05-09T06:40:13.173Z,73.90
2018-05-09T06:42:41.520Z,73.10
2018-05-09T06:45:09.868Z,72.70
2018-05-09T06:47:38.165Z,72.40
2018-05-09T06:50:08.036Z,71.20
2018-05-09T06:52:36.326Z,71.20
2018-05-09T06:55:04.669Z,70.50
2018-05-09T06:57:32.963Z,70.80
2018-05-09T07:00:01.379Z,69.70
2018-05-09T07:02:30.455Z,70.20
2018-05-09T07:04:58.805Z,70.20
2018-05-09T07:07:27.150Z,69.90
2018-05-09T07:09:56.202Z,69.10
2018-05-09T07:12:24.548Z,69.20
2018-05-09T07:14:53.657Z,68.60
2018-05-09T07:17:22.781Z,68.80
2018-05-09T07:19:51.903Z,68.30
2018-05-09T07:22:20.193Z,68.20
2018-05-09T07:24:48.493Z,67.00
2018-05-09T07:27:16.833Z,66.20
2018-05-09T07:29:45.185Z,65.00
2018-05-09T07:32:13.465Z,66.10
2018-05-09T07:34:41.820Z,65.00
2018-05-09T07:37:10.917Z,64.00
2018-05-09T07:39:39.977Z,62.60
2018-05-09T07:42:08.419Z,62.00
2018-05-09T07:44:36.704Z,61.70
2018-05-09T07:47:04.981Z,62.40
2018-05-09T07:49:33.335Z,60.50
2018-05-09T07:52:01.690Z,61.00
2018-05-09T07:54:30.813Z,62.30
2018-05-09T07:56:59.113Z,62.30
2018-05-09T07:59:27.407Z,61.40
2018-05-09T08:01:55.751Z,61.90
2018-05-09T08:04:24.034Z,59.00
2018-05-09T08:06:52.621Z,60.90
2018-05-09T08:09:21.013Z,58.40
2018-05-09T08:11:49.297Z,58.30
2018-05-09T08:14:17.653Z,59.60
2018-05-09T08:16:47.635Z,57.60
2018-05-09T08:19:16.692Z,58.00
2018-05-09T08:21:45.029Z,58.20
2018-05-09T08:24:13.373Z,58.20
2018-05-09T08:26:41.652Z,56.90
2018-05-09T08:29:10.014Z,56.40
2018-05-09T08:31:39.196Z,57.40
2018-05-09T08:34:07.485Z,57.30
2018-05-09T08:36:35.871Z,56.60
2018-05-09T08:39:04.129Z,55.70
2018-05-09T08:41:32.433Z,56.80
2018-05-09T08:44:00.875Z,57.10
2018-05-09T08:46:29.109Z,56.40
2018-05-09T08:48:57.453Z,54.50
2018-05-09T08:51:26.509Z,54.30
2018-05-09T08:53:54.893Z,54.30
2018-05-09T08:56:23.181Z,54.90
2018-05-09T08:58:51.469Z,53.60
2018-05-09T09:01:19.809Z,54.90
2018-05-09T09:03:48.167Z,53.40
2018-05-09T09:06:16.449Z,53.80
2018-05-09T09:08:44.741Z,51.10
2018-05-09T09:11:13.092Z,51.70
2018-05-09T09:13:42.205Z,49.40
2018-05-09T09:16:10.572Z,49.30
2018-05-09T09:18:38.946Z,50.80
2018-05-09T09:21:07.218Z,48.40
2018-05-09T09:23:35.581Z,49.40
2018-05-09T09:26:03.866Z,48.80
2018-05-09T09:28:32.153Z,47.70
2018-05-09T09:31:00.897Z,48.00
2018-05-09T09:33:29.301Z,48.20
2018-05-09T09:35:57.585Z,47.00
2018-05-09T09:38:25.949Z,47.60
2018-05-09T09:40:54.232Z,46.70
2018-05-09T09:43:22.541Z,46.90
2018-05-09T09:45:50.892Z,45.90
2018-05-09T09:48:19.188Z,46.20
2018-05-09T09:50:47.722Z,45.00
2018-05-09T09:53:16.129Z,46.00
2018-05-09T09:55:44.413Z,46.70
2018-05-09T09:58:12.696Z,46.00
2018-05-09T10:00:41.805Z,46.70
2018-05-09T10:03:10.089Z,46.70
2018-05-09T10:05:38.433Z,45.90
2018-05-09T10:08:06.820Z,46.30
2018-05-09T10:10:35.101Z,47.00
2018-05-09T10:13:04.167Z,46.10
2018-05-09T10:15:32.616Z,46.30
2018-05-09T10:18:00.957Z,47.00
2018-05-09T10:20:29.353Z,46.30
2018-05-09T10:22:57.697Z,48.50
2018-05-09T10:25:25.977Z,46.60
2018-05-09T10:27:54.273Z,46.30
2018-05-09T10:30:22.609Z,47.30
2018-05-09T10:32:50.984Z,48.20
2018-05-09T10:35:19.265Z,49.20
2018-05-09T10:37:47.563Z,47.30
2018-05-09T10:40:16.286Z,46.30
2018-05-09T10:42:44.568Z,47.30
2018-05-09T10:45:14.361Z,48.30
2018-05-09T10:47:42.707Z,48.30
2018-05-09T10:50:11.755Z,49.10
2018-05-09T10:52:40.041Z,49.00
2018-05-09T10:55:09.269Z,49.60
2018-05-09T10:57:37.561Z,50.70
2018-05-09T11:00:05.916Z,50.30
2018-05-09T11:02:34.219Z,48.50
2018-05-09T11:05:02.839Z,49.80
2018-05-09T11:07:31.841Z,49.40
2018-05-09T11:10:00.189Z,49.50
2018-05-09T11:12:28.469Z,49.90
2018-05-09T11:14:57.521Z,49.60
2018-05-09T11:17:25.866Z,49.60
2018-05-09T11:19:54.930Z,49.50
2018-05-09T11:22:23.230Z,49.50
2018-05-09T11:24:51.569Z,48.00
2018-05-09T11:27:20.217Z,43.80
2018-05-09T11:29:48.610Z,43.50
2018-05-09T11:32:16.891Z,45.00
2018-05-09T11:34:45.275Z,44.80
2018-05-09T11:37:13.606Z,44.90
2018-05-09T11:39:42.705Z,45.80
2018-05-09T11:42:10.989Z,45.70
2018-05-09T11:44:39.347Z,43.30
2018-05-09T11:47:07.753Z,45.30
2018-05-09T11:49:36.043Z,43.40
2018-05-09T11:52:04.392Z,44.70
2018-05-09T11:54:32.830Z,46.20
2018-05-09T11:57:01.169Z,46.00
2018-05-09T11:59:29.521Z,46.30
2018-05-09T12:01:57.817Z,46.50
2018-05-09T12:04:26.131Z,44.10
2018-05-09T12:06:54.492Z,41.10
2018-05-09T12:09:22.817Z,41.20
2018-05-09T12:11:51.099Z,40.60
2018-05-09T12:14:19.456Z,42.90
2018-05-09T12:16:47.734Z,39.60
2018-05-09T12:19:16.032Z,41.40
2018-05-09T12:21:44.422Z,42.60
2018-05-09T12:24:13.073Z,41.60
2018-05-09T12:26:41.411Z,38.60
2018-05-09T12:29:09.685Z,40.80
2018-05-09T12:31:38.021Z,43.20
2018-05-09T12:34:07.137Z,43.90
2018-05-09T12:36:35.425Z,43.90
2018-05-09T12:39:03.858Z,42.00
2018-05-09T12:41:32.559Z,43.40
2018-05-09T12:44:00.904Z,42.80
2018-05-09T12:46:29.189Z,43.80
2018-05-09T12:48:57.542Z,42.10
2018-05-09T12:51:25.833Z,42.30
2018-05-09T12:53:54.122Z,39.40
2018-05-09T12:56:22.476Z,41.40
2018-05-09T12:58:50.762Z,42.80
2018-05-09T13:01:19.080Z,40.20
2018-05-09T13:03:47.429Z,40.90
2018-05-09T13:06:15.713Z,42.00
2018-05-09T13:08:44.061Z,41.30
2018-05-09T13:11:12.751Z,42.90
2018-05-09T13:13:41.153Z,44.60
2018-05-09T13:16:09.846Z,42.70
2018-05-09T13:18:38.138Z,41.90
2018-05-09T13:21:06.578Z,43.50
2018-05-09T13:23:34.948Z,43.50
2018-05-09T13:26:03.476Z,41.80
2018-05-09T13:28:32.587Z,40.40
2018-05-09T13:31:00.880Z,40.40
2018-05-09T13:33:29.301Z,43.10
2018-05-09T13:35:58.358Z,40.50
2018-05-09T13:38:26.642Z,40.20
2018-05-09T13:40:54.975Z,39.80
2018-05-09T13:43:23.260Z,39.60
2018-05-09T13:45:51.595Z,41.20
2018-05-09T13:48:19.962Z,40.90
2018-05-09T13:50:48.250Z,43.00
2018-05-09T13:53:16.586Z,40.30
2018-05-09T13:55:44.909Z,41.80
2018-05-09T13:58:13.245Z,41.80
2018-05-09T14:00:42.373Z,39.50
2018-05-09T14:03:11.445Z,39.70
2018-05-09T14:05:39.809Z,39.70
2018-05-09T14:08:08.103Z,40.00
2018-05-09T14:10:38.402Z,41.50
2018-05-09T14:13:06.709Z,41.60
2018-05-09T14:15:35.036Z,42.50
2018-05-09T14:18:03.386Z,41.70
2018-05-09T14:20:31.727Z,41.10
2018-05-09T14:23:00.027Z,41.70
2018-05-09T14:25:28.501Z,41.40
2018-05-09T14:27:56.790Z,41.70
2018-05-09T14:30:25.069Z,42.10
2018-05-09T14:32:54.182Z,43.60
2018-05-09T14:35:23.232Z,43.30
2018-05-09T14:37:51.976Z,43.30
2018-05-09T14:40:20.302Z,43.40
2018-05-09T14:42:48.584Z,43.00
2018-05-09T14:45:16.937Z,42.50
2018-05-09T14:47:45.240Z,42.30
2018-05-09T14:50:19.200Z,42.80
2018-05-09T14:52:48.929Z,42.30
2018-05-09T14:55:19.242Z,41.40
2018-05-09T14:57:48.289Z,41.60
2018-05-09T15:00:16.663Z,41.50
2018-05-09T15:02:44.925Z,43.10
2018-05-09T15:05:13.981Z,39.00
2018-05-09T15:07:42.265Z,38.90
2018-05-09T15:10:10.609Z,38.50
2018-05-09T15:12:38.893Z,38.00
2018-05-09T15:15:07.241Z,36.00
2018-05-09T15:17:35.557Z,36.00
2018-05-09T15:20:03.897Z,34.30
2018-05-09T15:22:32.341Z,33.00
2018-05-09T15:25:00.621Z,31.60
2018-05-09T15:27:29.328Z,30.50
2018-05-09T15:29:57.608Z,30.30
2018-05-09T15:32:26.000Z,29.20
2018-05-09T15:34:54.392Z,29.90
2018-05-09T15:37:22.688Z,30.60
2018-05-09T15:39:50.969Z,32.90
2018-05-09T15:42:19.357Z,34.60
2018-05-09T15:44:47.670Z,33.30
2018-05-09T15:47:15.931Z,32.00
2018-05-09T15:49:44.277Z,33.00
2018-05-09T15:52:14.570Z,33.50
2018-05-09T15:54:43.268Z,33.50
2018-05-09T15:57:13.495Z,33.90
2018-05-09T15:59:42.585Z,33.90
2018-05-09T16:02:11.035Z,34.50
2018-05-09T16:04:40.081Z,35.10
2018-05-09T16:07:08.699Z,35.00
2018-05-09T16:09:37.194Z,33.00
2018-05-09T16:12:05.548Z,31.90
2018-05-09T16:14:33.877Z,32.40
2018-05-09T16:17:02.165Z,34.30
2018-05-09T16:19:30.509Z,33.80
2018-05-09T16:21:58.797Z,34.10
2018-05-09T16:24:27.152Z,34.10
2018-05-09T16:26:55.481Z,34.20
2018-05-09T16:29:23.766Z,34.80
2018-05-09T16:31:52.109Z,34.40
2018-05-09T16:34:20.396Z,34.80
2018-05-09T16:36:48.812Z,35.90
2018-05-09T16:39:17.087Z,36.80
2018-05-09T16:41:45.481Z,37.70
2018-05-09T16:44:13.829Z,39.00
2018-05-09T16:46:42.110Z,38.90
2018-05-09T16:49:10.456Z,39.70
2018-05-09T16:51:39.560Z,39.20
2018-05-09T16:54:07.837Z,39.20
2018-05-09T16:56:36.117Z,39.60
2018-05-09T16:59:04.817Z,42.30
2018-05-09T17:01:33.480Z,42.60
2018-05-09T17:04:02.521Z,43.40
2018-05-09T17:06:32.263Z,44.10
2018-05-09T17:09:01.352Z,44.40
2018-05-09T17:11:30.072Z,44.70
2018-05-09T17:13:58.543Z,45.40
2018-05-09T17:16:27.037Z,45.80
2018-05-09T17:18:55.634Z,47.00
2018-05-09T17:21:37.442Z,48.70
2018-05-09T17:24:06.552Z,48.60
2018-05-09T17:26:35.366Z,49.60
2018-05-09T17:29:04.359Z,50.00
2018-05-09T17:31:33.670Z,51.20
2018-05-09T17:34:02.317Z,52.20
2018-05-09T17:36:31.783Z,52.80
2018-05-09T17:39:00.808Z,52.80
2018-05-09T17:41:29.494Z,53.60
2018-05-09T17:43:58.069Z,54.20
2018-05-09T17:46:27.678Z,54.50
2018-05-09T17:48:56.001Z,55.50
2018-05-09T17:51:24.590Z,55.60
2018-05-09T17:53:52.865Z,55.50
2018-05-09T17:56:21.184Z,56.60
2018-05-09T17:58:49.664Z,56.70
2018-05-09T18:01:17.954Z,57.40
2018-05-09T18:03:46.233Z,57.80
2018-05-09T18:06:15.767Z,57.90
2018-05-09T18:08:44.049Z,59.00
2018-05-09T18:11:12.761Z,59.70
2018-05-09T18:13:41.097Z,59.00
2018-05-09T18:16:09.436Z,59.80
2018-05-09T18:18:37.833Z,59.60
2018-05-09T18:21:06.113Z,60.50
2018-05-09T18:23:34.400Z,61.20
2018-05-09T18:26:02.792Z,63.90
2018-05-09T18:28:31.393Z,63.60
2018-05-09T18:30:59.677Z,64.70
2018-05-09T18:33:27.973Z,64.50
2018-05-09T18:35:56.304Z,65.50
2018-05-09T18:38:24.589Z,66.90
2018-05-09T18:40:53.862Z,67.50
2018-05-09T18:43:22.141Z,67.50
2018-05-09T18:45:50.429Z,67.20
2018-05-09T18:48:18.829Z,67.80
2018-05-09T18:50:47.177Z,67.90
2018-05-09T18:53:15.646Z,68.40
2018-05-09T18:55:44.705Z,70.30
2018-05-09T18:58:13.801Z,71.00
2018-05-09T19:00:42.107Z,71.00
2018-05-09T19:03:10.449Z,71.80
2018-05-09T19:05:39.500Z,75.70
2018-05-09T19:08:07.845Z,75.70
2018-05-09T19:10:36.893Z,76.40
2018-05-09T19:13:05.181Z,76.30
2018-05-09T19:15:33.517Z,75.60
2018-05-09T19:18:02.573Z,75.10
2018-05-09T19:20:30.996Z,75.00
2018-05-09T19:22:59.346Z,72.50
2018-05-09T19:25:27.701Z,73.00
2018-05-09T19:27:56.747Z,73.80
2018-05-09T19:30:25.089Z,73.80
2018-05-09T19:32:54.784Z,74.50
2018-05-09T19:35:23.065Z,75.20
2018-05-09T19:37:51.650Z,75.80
2018-05-09T19:40:19.930Z,74.70
2018-05-09T19:42:48.220Z,74.70
2018-05-09T19:45:16.644Z,75.30
2018-05-09T19:47:45.058Z,76.00
2018-05-09T19:50:13.300Z,76.50
2018-05-09T19:52:41.653Z,77.10
2018-05-09T19:55:10.715Z,78.10
2018-05-09T19:57:38.997Z,78.10
2018-05-09T20:00:07.345Z,78.40
2018-05-09T20:02:36.503Z,77.50
2018-05-09T20:05:04.895Z,77.60
2018-05-09T20:07:33.234Z,77.90
2018-05-09T20:10:01.521Z,78.40
2018-05-09T20:12:30.647Z,79.90
2018-05-09T20:14:58.925Z,79.30
2018-05-09T20:17:27.268Z,79.40
2018-05-09T20:19:55.550Z,80.00
2018-05-09T20:22:23.901Z,81.50
2018-05-09T20:24:52.208Z,82.40
2018-05-09T20:27:20.628Z,82.70
2018-05-09T20:29:49.022Z,83.30
2018-05-09T20:32:29.084Z,85.80
2018-05-09T20:34:57.423Z,86.50
2018-05-09T20:37:25.708Z,86.90
2018-05-09T20:39:54.069Z,86.00
2018-05-09T20:42:22.366Z,89.60
2018-05-09T20:44:50.788Z,89.60
2018-05-09T20:47:19.219Z,89.30
2018-05-09T20:49:47.520Z,88.70
2018-05-09T20:52:16.270Z,88.70
2018-05-09T20:54:44.605Z,89.90
2018-05-09T20:57:13.310Z,89.80
2018-05-09T20:59:41.601Z,88.00
2018-05-09T21:02:09.889Z,86.30
2018-05-09T21:04:38.446Z,82.90
2018-05-09T21:07:07.541Z,82.70
2018-05-09T21:09:35.905Z,81.70
2018-05-09T21:12:09.244Z,81.80
2018-05-09T21:14:38.448Z,81.50
2018-05-09T21:17:06.985Z,81.40
2018-05-09T21:19:35.491Z,80.70
2018-05-09T21:22:03.892Z,78.30
2018-05-09T21:24:33.062Z,77.40
2018-05-09T21:27:01.937Z,75.70
2018-05-09T21:29:30.309Z,74.70
2018-05-09T21:31:58.592Z,77.30
2018-05-09T21:34:28.621Z,77.10
2018-05-09T21:36:57.829Z,77.80
2018-05-09T21:39:26.213Z,77.80
2018-05-09T21:41:54.541Z,78.40
2018-05-09T21:44:23.590Z,78.30
2018-05-09T21:46:51.929Z,78.20
2018-05-09T21:49:21.001Z,78.60
2018-05-09T21:51:49.337Z,78.50
2018-05-09T21:54:18.385Z,79.70
2018-05-09T21:56:47.102Z,79.70
2018-05-09T21:59:15.385Z,79.80
2018-05-09T22:01:43.673Z,80.00
2018-05-09T22:04:12.009Z,80.50
2018-05-09T22:06:41.061Z,81.60
2018-05-09T22:09:09.373Z,81.50
2018-05-09T22:11:37.757Z,81.30
2018-05-09T22:14:06.161Z,81.10
2018-05-09T22:16:34.498Z,81.50
2018-05-09T22:19:02.927Z,82.00
2018-05-09T22:21:31.269Z,81.60
2018-05-09T22:23:59.551Z,81.80
2018-05-09T22:26:28.644Z,83.50
2018-05-09T22:28:57.728Z,84.20
2018-05-09T22:31:26.066Z,84.20
2018-05-09T22:33:54.345Z,83.90
2018-05-09T22:36:23.399Z,84.90
2018-05-09T22:38:51.729Z,84.90
2018-05-09T22:41:20.792Z,84.90
2018-05-09T22:43:49.191Z,84.90
2018-05-09T22:46:17.666Z,85.20
2018-05-09T22:48:45.985Z,85.40
2018-05-09T22:51:14.269Z,85.90
2018-05-09T22:53:42.622Z,85.30
2018-05-09T22:56:10.917Z,84.90
2018-05-09T22:58:39.268Z,85.30
2018-05-09T23:01:07.553Z,85.50
2018-05-09T23:03:35.841Z,85.60
2018-05-09T23:06:04.185Z,85.90
2018-05-09T23:08:32.472Z,85.40
2018-05-09T23:11:00.804Z,85.00
2018-05-09T23:13:29.093Z,85.10
2018-05-09T23:15:58.208Z,85.70
2018-05-09T23:18:26.488Z,85.60
2018-05-09T23:20:54.865Z,85.20
2018-05-09T23:23:23.146Z,84.70
2018-05-09T23:25:51.429Z,84.70
2018-05-09T23:28:20.044Z,84.40
2018-05-09T23:30:48.321Z,84.20
2018-05-09T23:33:16.601Z,84.70
2018-05-09T23:35:44.940Z,85.20
2018-05-09T23:38:14.119Z,86.00
2018-05-09T23:40:42.466Z,86.00
2018-05-09T23:43:10.713Z,85.90
2018-05-09T23:45:39.045Z,86.30
2018-05-09T23:48:07.399Z,86.00
2018-05-09T23:50:35.685Z,85.60
2018-05-09T23:53:04.022Z,85.70
2018-05-09T23:55:32.448Z,85.70
2018-05-09T23:58:01.469Z,85.80
